sensor_id;sensor_type;location;lat;lon;timestamp;P1;durP1;ratioP1;P2;durP2;ratioP2
78563;SDS011;67856;47.754;19.088;2023-09-19T00:01:15;9.50;;;7.70;;
78563;SDS011;67856;47.754;19.088;2023-09-19T00:04:17;10.77;;;7.70;;
78563;SDS011;67856;47.754;19.088;2023-09-19T00:07:25;8.80;;;7.53;;
78563;SDS011;67856;47.754;19.088;2023-09-19T00:10:28;9.67;;;7.60;;
78563;SDS011;67856;47.754;19.088;2023-09-19T00:13:33;9.65;;;8.00;;
78563;SDS011;67856;47.754;19.088;2023-09-19T00:16:38;9.70;;;7.60;;
78563;SDS011;67856;47.754;19.088;2023-09-19T00:19:41;9.50;;;7.32;;
78563;SDS011;67856;47.754;19.088;2023-09-19T00:22:45;9.25;;;7.25;;
78563;SDS011;67856;47.754;19.088;2023-09-19T00:25:47;11.90;;;7.80;;
78563;SDS011;67856;47.754;19.088;2023-09-19T00:28:54;10.80;;;7.32;;
78563;SDS011;67856;47.754;19.088;2023-09-19T00:31:56;10.02;;;7.70;;
78563;SDS011;67856;47.754;19.088;2023-09-19T00:35:01;9.20;;;7.38;;
78563;SDS011;67856;47.754;19.088;2023-09-19T00:38:04;9.68;;;7.97;;
78563;SDS011;67856;47.754;19.088;2023-09-19T00:41:06;9.67;;;7.53;;
78563;SDS011;67856;47.754;19.088;2023-09-19T00:44:09;10.35;;;7.70;;
78563;SDS011;67856;47.754;19.088;2023-09-19T00:47:12;9.77;;;7.32;;
78563;SDS011;67856;47.754;19.088;2023-09-19T00:50:22;9.60;;;7.22;;
78563;SDS011;67856;47.754;19.088;2023-09-19T00:53:25;9.02;;;7.47;;
78563;SDS011;67856;47.754;19.088;2023-09-19T00:56:29;9.00;;;7.43;;
78563;SDS011;67856;47.754;19.088;2023-09-19T00:59:32;9.18;;;6.85;;
78563;SDS011;67856;47.754;19.088;2023-09-19T01:02:34;10.10;;;7.68;;
78563;SDS011;67856;47.754;19.088;2023-09-19T01:05:37;9.57;;;7.35;;
78563;SDS011;67856;47.754;19.088;2023-09-19T01:08:40;9.63;;;7.43;;
78563;SDS011;67856;47.754;19.088;2023-09-19T01:11:42;9.73;;;7.30;;
78563;SDS011;67856;47.754;19.088;2023-09-19T01:18:08;8.80;;;7.25;;
78563;SDS011;67856;47.754;19.088;2023-09-19T01:21:27;8.80;;;7.00;;
78563;SDS011;67856;47.754;19.088;2023-09-19T01:24:47;9.18;;;7.30;;
78563;SDS011;67856;47.754;19.088;2023-09-19T01:31:17;10.18;;;7.22;;
78563;SDS011;67856;47.754;19.088;2023-09-19T01:34:22;9.60;;;7.45;;
78563;SDS011;67856;47.754;19.088;2023-09-19T01:37:24;10.73;;;7.00;;
78563;SDS011;67856;47.754;19.088;2023-09-19T01:40:28;8.95;;;7.35;;
78563;SDS011;67856;47.754;19.088;2023-09-19T01:43:36;9.50;;;7.30;;
78563;SDS011;67856;47.754;19.088;2023-09-19T01:46:40;9.18;;;7.07;;
78563;SDS011;67856;47.754;19.088;2023-09-19T01:50:07;9.82;;;7.38;;
78563;SDS011;67856;47.754;19.088;2023-09-19T01:53:14;9.20;;;7.25;;
78563;SDS011;67856;47.754;19.088;2023-09-19T01:56:25;8.75;;;6.97;;
78563;SDS011;67856;47.754;19.088;2023-09-19T01:59:34;10.03;;;6.87;;
78563;SDS011;67856;47.754;19.088;2023-09-19T02:02:39;8.82;;;7.00;;
78563;SDS011;67856;47.754;19.088;2023-09-19T02:05:50;9.63;;;7.05;;
78563;SDS011;67856;47.754;19.088;2023-09-19T02:08:54;8.70;;;6.85;;
78563;SDS011;67856;47.754;19.088;2023-09-19T02:11:57;9.43;;;6.80;;
78563;SDS011;67856;47.754;19.088;2023-09-19T02:15:01;8.77;;;7.03;;
78563;SDS011;67856;47.754;19.088;2023-09-19T02:18:04;8.40;;;6.80;;
78563;SDS011;67856;47.754;19.088;2023-09-19T02:21:07;8.48;;;6.63;;
78563;SDS011;67856;47.754;19.088;2023-09-19T02:24:13;8.23;;;6.78;;
78563;SDS011;67856;47.754;19.088;2023-09-19T02:27:17;8.60;;;6.80;;
78563;SDS011;67856;47.754;19.088;2023-09-19T02:30:20;9.40;;;6.93;;
78563;SDS011;67856;47.754;19.088;2023-09-19T02:33:25;9.60;;;6.90;;
78563;SDS011;67856;47.754;19.088;2023-09-19T02:36:28;8.98;;;6.93;;
78563;SDS011;67856;47.754;19.088;2023-09-19T02:39:32;8.60;;;6.32;;
78563;SDS011;67856;47.754;19.088;2023-09-19T02:42:34;9.45;;;7.07;;
78563;SDS011;67856;47.754;19.088;2023-09-19T02:45:37;8.90;;;6.90;;
78563;SDS011;67856;47.754;19.088;2023-09-19T02:48:40;9.68;;;7.07;;
78563;SDS011;67856;47.754;19.088;2023-09-19T02:51:42;8.73;;;7.10;;
78563;SDS011;67856;47.754;19.088;2023-09-19T02:54:45;11.05;;;7.45;;
78563;SDS011;67856;47.754;19.088;2023-09-19T02:57:48;8.40;;;6.97;;
78563;SDS011;67856;47.754;19.088;2023-09-19T03:00:56;9.67;;;6.57;;
78563;SDS011;67856;47.754;19.088;2023-09-19T03:04:00;8.70;;;6.50;;
78563;SDS011;67856;47.754;19.088;2023-09-19T03:07:03;8.63;;;6.65;;
78563;SDS011;67856;47.754;19.088;2023-09-19T03:10:08;8.25;;;6.70;;
78563;SDS011;67856;47.754;19.088;2023-09-19T03:13:11;7.88;;;6.40;;
78563;SDS011;67856;47.754;19.088;2023-09-19T03:16:14;8.90;;;7.03;;
78563;SDS011;67856;47.754;19.088;2023-09-19T03:19:17;8.32;;;6.75;;
78563;SDS011;67856;47.754;19.088;2023-09-19T03:22:23;9.93;;;7.10;;
78563;SDS011;67856;47.754;19.088;2023-09-19T03:25:27;10.18;;;6.82;;
78563;SDS011;67856;47.754;19.088;2023-09-19T03:28:33;9.25;;;6.38;;
78563;SDS011;67856;47.754;19.088;2023-09-19T03:31:36;8.83;;;6.60;;
78563;SDS011;67856;47.754;19.088;2023-09-19T03:34:43;8.40;;;6.30;;
78563;SDS011;67856;47.754;19.088;2023-09-19T03:37:47;8.50;;;6.80;;
78563;SDS011;67856;47.754;19.088;2023-09-19T03:40:49;8.98;;;6.63;;
78563;SDS011;67856;47.754;19.088;2023-09-19T03:43:52;9.70;;;6.70;;
78563;SDS011;67856;47.754;19.088;2023-09-19T03:46:55;8.67;;;6.60;;
78563;SDS011;67856;47.754;19.088;2023-09-19T03:49:59;9.18;;;6.30;;
78563;SDS011;67856;47.754;19.088;2023-09-19T03:53:01;9.27;;;7.05;;
78563;SDS011;67856;47.754;19.088;2023-09-19T03:56:04;8.60;;;6.53;;
78563;SDS011;67856;47.754;19.088;2023-09-19T03:59:08;8.20;;;6.90;;
78563;SDS011;67856;47.754;19.088;2023-09-19T04:02:11;9.97;;;6.70;;
78563;SDS011;67856;47.754;19.088;2023-09-19T04:05:25;8.70;;;6.78;;
78563;SDS011;67856;47.754;19.088;2023-09-19T04:08:27;9.20;;;7.25;;
78563;SDS011;67856;47.754;19.088;2023-09-19T04:11:30;8.98;;;6.70;;
78563;SDS011;67856;47.754;19.088;2023-09-19T04:14:33;8.52;;;6.60;;
78563;SDS011;67856;47.754;19.088;2023-09-19T04:17:35;8.30;;;6.40;;
78563;SDS011;67856;47.754;19.088;2023-09-19T04:20:38;8.55;;;6.50;;
78563;SDS011;67856;47.754;19.088;2023-09-19T04:23:40;8.88;;;6.72;;
78563;SDS011;67856;47.754;19.088;2023-09-19T04:26:43;9.57;;;6.68;;
78563;SDS011;67856;47.754;19.088;2023-09-19T04:29:45;7.80;;;6.00;;
78563;SDS011;67856;47.754;19.088;2023-09-19T04:32:48;8.27;;;6.43;;
78563;SDS011;67856;47.754;19.088;2023-09-19T04:35:53;7.82;;;6.20;;
78563;SDS011;67856;47.754;19.088;2023-09-19T04:38:58;8.13;;;6.60;;
78563;SDS011;67856;47.754;19.088;2023-09-19T04:42:01;9.05;;;6.72;;
78563;SDS011;67856;47.754;19.088;2023-09-19T04:45:03;8.00;;;6.55;;
78563;SDS011;67856;47.754;19.088;2023-09-19T04:48:07;8.57;;;6.50;;
78563;SDS011;67856;47.754;19.088;2023-09-19T04:51:11;9.75;;;6.68;;
78563;SDS011;67856;47.754;19.088;2023-09-19T04:54:13;8.05;;;6.60;;
78563;SDS011;67856;47.754;19.088;2023-09-19T04:57:17;7.40;;;5.97;;
78563;SDS011;67856;47.754;19.088;2023-09-19T05:00:20;8.18;;;5.50;;
78563;SDS011;67856;47.754;19.088;2023-09-19T05:03:26;7.07;;;5.30;;
78563;SDS011;67856;47.754;19.088;2023-09-19T05:06:28;7.47;;;5.03;;
78563;SDS011;67856;47.754;19.088;2023-09-19T05:09:31;7.10;;;5.30;;
78563;SDS011;67856;47.754;19.088;2023-09-19T05:12:36;7.10;;;4.80;;
78563;SDS011;67856;47.754;19.088;2023-09-19T05:15:38;6.03;;;4.57;;
78563;SDS011;67856;47.754;19.088;2023-09-19T05:18:41;5.60;;;4.00;;
78563;SDS011;67856;47.754;19.088;2023-09-19T05:21:44;6.43;;;2.83;;
78563;SDS011;67856;47.754;19.088;2023-09-19T05:24:46;10.00;;;2.63;;
78563;SDS011;67856;47.754;19.088;2023-09-19T05:27:52;6.38;;;2.00;;
78563;SDS011;67856;47.754;19.088;2023-09-19T05:30:55;3.95;;;1.42;;
78563;SDS011;67856;47.754;19.088;2023-09-19T05:33:58;2.70;;;1.60;;
78563;SDS011;67856;47.754;19.088;2023-09-19T05:37:03;4.53;;;1.30;;
78563;SDS011;67856;47.754;19.088;2023-09-19T05:40:07;2.63;;;1.30;;
78563;SDS011;67856;47.754;19.088;2023-09-19T05:43:11;3.63;;;1.20;;
78563;SDS011;67856;47.754;19.088;2023-09-19T05:46:19;1.80;;;1.10;;
78563;SDS011;67856;47.754;19.088;2023-09-19T05:49:23;3.30;;;1.40;;
78563;SDS011;67856;47.754;19.088;2023-09-19T05:52:26;5.30;;;1.40;;
78563;SDS011;67856;47.754;19.088;2023-09-19T05:55:29;1.63;;;0.98;;
78563;SDS011;67856;47.754;19.088;2023-09-19T05:58:31;3.60;;;1.10;;
78563;SDS011;67856;47.754;19.088;2023-09-19T06:01:34;3.38;;;1.10;;
78563;SDS011;67856;47.754;19.088;2023-09-19T06:04:37;5.77;;;1.10;;
78563;SDS011;67856;47.754;19.088;2023-09-19T06:07:43;4.90;;;1.30;;
78563;SDS011;67856;47.754;19.088;2023-09-19T06:10:46;7.75;;;1.13;;
78563;SDS011;67856;47.754;19.088;2023-09-19T06:13:49;6.50;;;1.20;;
78563;SDS011;67856;47.754;19.088;2023-09-19T06:16:53;5.88;;;1.08;;
78563;SDS011;67856;47.754;19.088;2023-09-19T06:19:56;8.57;;;1.40;;
78563;SDS011;67856;47.754;19.088;2023-09-19T06:22:59;2.88;;;1.00;;
78563;SDS011;67856;47.754;19.088;2023-09-19T06:26:03;5.20;;;0.90;;
78563;SDS011;67856;47.754;19.088;2023-09-19T06:29:12;1.83;;;0.30;;
78563;SDS011;67856;47.754;19.088;2023-09-19T06:32:16;1.23;;;0.40;;
78563;SDS011;67856;47.754;19.088;2023-09-19T06:35:19;6.83;;;0.70;;
78563;SDS011;67856;47.754;19.088;2023-09-19T06:38:22;2.55;;;0.47;;
78563;SDS011;67856;47.754;19.088;2023-09-19T06:41:25;2.42;;;0.40;;
78563;SDS011;67856;47.754;19.088;2023-09-19T06:44:28;2.33;;;0.30;;
78563;SDS011;67856;47.754;19.088;2023-09-19T06:47:31;1.30;;;0.30;;
78563;SDS011;67856;47.754;19.088;2023-09-19T06:50:35;1.87;;;0.23;;
78563;SDS011;67856;47.754;19.088;2023-09-19T06:53:38;2.20;;;0.30;;
78563;SDS011;67856;47.754;19.088;2023-09-19T06:56:42;2.58;;;0.20;;
78563;SDS011;67856;47.754;19.088;2023-09-19T06:59:45;1.15;;;0.25;;
78563;SDS011;67856;47.754;19.088;2023-09-19T07:03:09;0.50;;;0.17;;
78563;SDS011;67856;47.754;19.088;2023-09-19T07:06:14;2.00;;;0.20;;
78563;SDS011;67856;47.754;19.088;2023-09-19T07:09:16;0.60;;;0.28;;
78563;SDS011;67856;47.754;19.088;2023-09-19T07:12:21;1.80;;;0.20;;
78563;SDS011;67856;47.754;19.088;2023-09-19T07:15:24;0.40;;;0.10;;
78563;SDS011;67856;47.754;19.088;2023-09-19T07:18:30;0.60;;;0.20;;
78563;SDS011;67856;47.754;19.088;2023-09-19T07:21:33;1.27;;;0.40;;
78563;SDS011;67856;47.754;19.088;2023-09-19T07:24:37;0.43;;;0.20;;
78563;SDS011;67856;47.754;19.088;2023-09-19T07:27:41;0.85;;;0.30;;
78563;SDS011;67856;47.754;19.088;2023-09-19T07:30:43;0.60;;;0.20;;
78563;SDS011;67856;47.754;19.088;2023-09-19T07:33:46;3.85;;;0.35;;
78563;SDS011;67856;47.754;19.088;2023-09-19T07:36:48;1.17;;;0.20;;
78563;SDS011;67856;47.754;19.088;2023-09-19T07:39:51;0.60;;;0.20;;
78563;SDS011;67856;47.754;19.088;2023-09-19T07:42:54;0.65;;;0.20;;
78563;SDS011;67856;47.754;19.088;2023-09-19T07:45:57;2.30;;;0.30;;
78563;SDS011;67856;47.754;19.088;2023-09-19T07:49:03;0.60;;;0.30;;
78563;SDS011;67856;47.754;19.088;2023-09-19T07:52:05;0.37;;;0.23;;
78563;SDS011;67856;47.754;19.088;2023-09-19T07:55:29;0.60;;;0.30;;
78563;SDS011;67856;47.754;19.088;2023-09-19T07:58:38;3.50;;;0.50;;
78563;SDS011;67856;47.754;19.088;2023-09-19T08:01:44;1.67;;;0.50;;
78563;SDS011;67856;47.754;19.088;2023-09-19T08:04:47;3.42;;;0.40;;
78563;SDS011;67856;47.754;19.088;2023-09-19T08:07:51;2.60;;;0.50;;
78563;SDS011;67856;47.754;19.088;2023-09-19T08:10:54;1.30;;;0.60;;
78563;SDS011;67856;47.754;19.088;2023-09-19T08:14:00;2.75;;;0.50;;
78563;SDS011;67856;47.754;19.088;2023-09-19T08:17:03;0.82;;;0.50;;
78563;SDS011;67856;47.754;19.088;2023-09-19T08:20:10;3.70;;;0.40;;
78563;SDS011;67856;47.754;19.088;2023-09-19T08:23:21;2.13;;;0.47;;
78563;SDS011;67856;47.754;19.088;2023-09-19T08:26:23;4.60;;;0.50;;
78563;SDS011;67856;47.754;19.088;2023-09-19T08:29:26;1.60;;;0.50;;
78563;SDS011;67856;47.754;19.088;2023-09-19T08:32:32;2.15;;;0.60;;
78563;SDS011;67856;47.754;19.088;2023-09-19T08:35:34;3.60;;;0.60;;
78563;SDS011;67856;47.754;19.088;2023-09-19T08:38:38;1.20;;;0.60;;
78563;SDS011;67856;47.754;19.088;2023-09-19T08:41:40;5.25;;;0.57;;
78563;SDS011;67856;47.754;19.088;2023-09-19T08:44:48;2.50;;;0.60;;
78563;SDS011;67856;47.754;19.088;2023-09-19T08:47:56;5.93;;;0.70;;
78563;SDS011;67856;47.754;19.088;2023-09-19T08:51:10;4.95;;;0.55;;
78563;SDS011;67856;47.754;19.088;2023-09-19T08:57:24;3.80;;;0.68;;
78563;SDS011;67856;47.754;19.088;2023-09-19T09:00:28;2.35;;;0.77;;
78563;SDS011;67856;47.754;19.088;2023-09-19T09:03:32;3.30;;;0.70;;
78563;SDS011;67856;47.754;19.088;2023-09-19T09:06:39;3.83;;;0.60;;
78563;SDS011;67856;47.754;19.088;2023-09-19T09:09:42;4.47;;;0.60;;
78563;SDS011;67856;47.754;19.088;2023-09-19T09:12:46;7.82;;;0.70;;
78563;SDS011;67856;47.754;19.088;2023-09-19T09:15:48;4.22;;;0.80;;
78563;SDS011;67856;47.754;19.088;2023-09-19T09:18:51;9.30;;;0.90;;
78563;SDS011;67856;47.754;19.088;2023-09-19T09:22:04;5.82;;;0.68;;
78563;SDS011;67856;47.754;19.088;2023-09-19T09:25:08;3.20;;;0.40;;
78563;SDS011;67856;47.754;19.088;2023-09-19T09:28:11;2.38;;;0.60;;
78563;SDS011;67856;47.754;19.088;2023-09-19T09:31:23;4.40;;;0.60;;
78563;SDS011;67856;47.754;19.088;2023-09-19T09:34:34;1.98;;;0.50;;
78563;SDS011;67856;47.754;19.088;2023-09-19T09:37:36;5.57;;;0.68;;
78563;SDS011;67856;47.754;19.088;2023-09-19T09:40:49;5.67;;;0.60;;
78563;SDS011;67856;47.754;19.088;2023-09-19T09:44:12;3.83;;;0.60;;
78563;SDS011;67856;47.754;19.088;2023-09-19T09:47:40;3.78;;;0.52;;
78563;SDS011;67856;47.754;19.088;2023-09-19T09:50:48;2.28;;;0.55;;
78563;SDS011;67856;47.754;19.088;2023-09-19T09:53:51;10.18;;;0.90;;
78563;SDS011;67856;47.754;19.088;2023-09-19T09:56:59;9.30;;;1.00;;
78563;SDS011;67856;47.754;19.088;2023-09-19T10:00:09;11.50;;;1.33;;
78563;SDS011;67856;47.754;19.088;2023-09-19T10:03:21;14.27;;;1.40;;
78563;SDS011;67856;47.754;19.088;2023-09-19T10:06:26;10.70;;;1.15;;
78563;SDS011;67856;47.754;19.088;2023-09-19T10:09:49;6.90;;;0.90;;
78563;SDS011;67856;47.754;19.088;2023-09-19T10:12:53;5.20;;;0.80;;
78563;SDS011;67856;47.754;19.088;2023-09-19T10:15:58;8.98;;;0.80;;
78563;SDS011;67856;47.754;19.088;2023-09-19T10:19:01;5.13;;;0.77;;
78563;SDS011;67856;47.754;19.088;2023-09-19T10:22:05;14.25;;;0.95;;
78563;SDS011;67856;47.754;19.088;2023-09-19T10:25:10;8.32;;;1.17;;
78563;SDS011;67856;47.754;19.088;2023-09-19T10:28:14;6.07;;;0.60;;
78563;SDS011;67856;47.754;19.088;2023-09-19T10:31:21;5.57;;;0.77;;
78563;SDS011;67856;47.754;19.088;2023-09-19T10:34:28;8.77;;;1.20;;
78563;SDS011;67856;47.754;19.088;2023-09-19T10:37:32;4.60;;;0.60;;
78563;SDS011;67856;47.754;19.088;2023-09-19T10:40:36;12.18;;;0.80;;
78563;SDS011;67856;47.754;19.088;2023-09-19T10:43:43;7.03;;;0.90;;
78563;SDS011;67856;47.754;19.088;2023-09-19T10:46:49;7.50;;;0.80;;
78563;SDS011;67856;47.754;19.088;2023-09-19T10:49:54;6.63;;;0.90;;
78563;SDS011;67856;47.754;19.088;2023-09-19T10:52:59;13.52;;;1.75;;
78563;SDS011;67856;47.754;19.088;2023-09-19T10:56:09;5.95;;;1.10;;
78563;SDS011;67856;47.754;19.088;2023-09-19T10:59:20;3.20;;;0.87;;
78563;SDS011;67856;47.754;19.088;2023-09-19T11:02:23;4.40;;;0.80;;
78563;SDS011;67856;47.754;19.088;2023-09-19T11:05:27;9.73;;;1.20;;
78563;SDS011;67856;47.754;19.088;2023-09-19T11:08:52;4.68;;;0.85;;
78563;SDS011;67856;47.754;19.088;2023-09-19T11:11:58;4.68;;;0.88;;
78563;SDS011;67856;47.754;19.088;2023-09-19T11:15:03;7.57;;;0.80;;
78563;SDS011;67856;47.754;19.088;2023-09-19T11:21:53;10.43;;;1.30;;
78563;SDS011;67856;47.754;19.088;2023-09-19T11:24:57;4.88;;;0.85;;
78563;SDS011;67856;47.754;19.088;2023-09-19T11:28:49;8.18;;;0.88;;
78563;SDS011;67856;47.754;19.088;2023-09-19T11:36:34;4.30;;;0.80;;
78563;SDS011;67856;47.754;19.088;2023-09-19T11:39:38;5.32;;;1.00;;
78563;SDS011;67856;47.754;19.088;2023-09-19T11:42:44;3.90;;;0.88;;
78563;SDS011;67856;47.754;19.088;2023-09-19T11:49:07;4.97;;;0.90;;
78563;SDS011;67856;47.754;19.088;2023-09-19T11:52:31;4.15;;;1.00;;
78563;SDS011;67856;47.754;19.088;2023-09-19T11:55:36;4.55;;;1.00;;
78563;SDS011;67856;47.754;19.088;2023-09-19T11:58:45;4.97;;;0.90;;
78563;SDS011;67856;47.754;19.088;2023-09-19T12:01:51;2.83;;;0.90;;
78563;SDS011;67856;47.754;19.088;2023-09-19T12:05:01;3.43;;;1.07;;
78563;SDS011;67856;47.754;19.088;2023-09-19T12:08:04;4.00;;;0.93;;
78563;SDS011;67856;47.754;19.088;2023-09-19T12:11:14;4.72;;;1.00;;
78563;SDS011;67856;47.754;19.088;2023-09-19T12:14:27;5.47;;;0.95;;
78563;SDS011;67856;47.754;19.088;2023-09-19T12:17:36;6.25;;;1.13;;
78563;SDS011;67856;47.754;19.088;2023-09-19T12:20:43;2.93;;;1.00;;
78563;SDS011;67856;47.754;19.088;2023-09-19T12:24:04;4.55;;;1.00;;
78563;SDS011;67856;47.754;19.088;2023-09-19T12:27:08;5.15;;;0.90;;
78563;SDS011;67856;47.754;19.088;2023-09-19T12:30:11;2.65;;;0.90;;
78563;SDS011;67856;47.754;19.088;2023-09-19T12:33:29;4.78;;;1.00;;
78563;SDS011;67856;47.754;19.088;2023-09-19T12:36:32;7.60;;;1.40;;
78563;SDS011;67856;47.754;19.088;2023-09-19T12:39:40;4.80;;;1.00;;
78563;SDS011;67856;47.754;19.088;2023-09-19T12:42:46;3.17;;;1.00;;
78563;SDS011;67856;47.754;19.088;2023-09-19T12:45:52;5.68;;;0.93;;
78563;SDS011;67856;47.754;19.088;2023-09-19T12:52:20;5.10;;;1.10;;
78563;SDS011;67856;47.754;19.088;2023-09-19T12:55:28;3.78;;;1.02;;
78563;SDS011;67856;47.754;19.088;2023-09-19T12:58:48;5.65;;;1.00;;
78563;SDS011;67856;47.754;19.088;2023-09-19T13:01:53;4.45;;;1.27;;
78563;SDS011;67856;47.754;19.088;2023-09-19T13:05:05;5.60;;;1.30;;
78563;SDS011;67856;47.754;19.088;2023-09-19T13:08:23;5.23;;;1.10;;
78563;SDS011;67856;47.754;19.088;2023-09-19T13:11:38;3.65;;;1.23;;
78563;SDS011;67856;47.754;19.088;2023-09-19T13:14:45;5.18;;;1.30;;
78563;SDS011;67856;47.754;19.088;2023-09-19T13:17:53;1.92;;;1.10;;
78563;SDS011;67856;47.754;19.088;2023-09-19T13:21:06;5.78;;;1.13;;
78563;SDS011;67856;47.754;19.088;2023-09-19T13:24:18;6.73;;;1.30;;
78563;SDS011;67856;47.754;19.088;2023-09-19T13:27:23;3.97;;;1.30;;
78563;SDS011;67856;47.754;19.088;2023-09-19T13:30:26;3.85;;;1.15;;
78563;SDS011;67856;47.754;19.088;2023-09-19T13:33:31;8.27;;;1.83;;
78563;SDS011;67856;47.754;19.088;2023-09-19T13:36:34;4.65;;;1.30;;
78563;SDS011;67856;47.754;19.088;2023-09-19T13:39:37;5.50;;;1.67;;
78563;SDS011;67856;47.754;19.088;2023-09-19T13:42:40;8.10;;;1.30;;
78563;SDS011;67856;47.754;19.088;2023-09-19T13:45:43;3.28;;;1.35;;
78563;SDS011;67856;47.754;19.088;2023-09-19T13:48:45;5.00;;;1.45;;
78563;SDS011;67856;47.754;19.088;2023-09-19T13:51:48;4.45;;;1.75;;
78563;SDS011;67856;47.754;19.088;2023-09-19T13:54:50;4.00;;;1.53;;
78563;SDS011;67856;47.754;19.088;2023-09-19T13:57:53;4.57;;;1.50;;
78563;SDS011;67856;47.754;19.088;2023-09-19T14:00:57;3.38;;;1.42;;
78563;SDS011;67856;47.754;19.088;2023-09-19T14:04:00;6.68;;;1.58;;
78563;SDS011;67856;47.754;19.088;2023-09-19T14:07:04;5.53;;;1.80;;
78563;SDS011;67856;47.754;19.088;2023-09-19T14:10:07;8.53;;;1.80;;
78563;SDS011;67856;47.754;19.088;2023-09-19T14:13:10;4.57;;;1.58;;
78563;SDS011;67856;47.754;19.088;2023-09-19T14:16:15;5.28;;;1.67;;
78563;SDS011;67856;47.754;19.088;2023-09-19T14:19:18;4.53;;;1.90;;
78563;SDS011;67856;47.754;19.088;2023-09-19T14:22:21;3.65;;;1.67;;
78563;SDS011;67856;47.754;19.088;2023-09-19T14:25:23;6.27;;;1.80;;
78563;SDS011;67856;47.754;19.088;2023-09-19T14:28:28;5.03;;;1.90;;
78563;SDS011;67856;47.754;19.088;2023-09-19T14:31:31;4.38;;;1.75;;
78563;SDS011;67856;47.754;19.088;2023-09-19T14:34:35;5.43;;;1.75;;
78563;SDS011;67856;47.754;19.088;2023-09-19T14:37:43;5.45;;;1.83;;
78563;SDS011;67856;47.754;19.088;2023-09-19T14:40:47;5.13;;;1.67;;
78563;SDS011;67856;47.754;19.088;2023-09-19T14:43:52;3.70;;;1.63;;
78563;SDS011;67856;47.754;19.088;2023-09-19T14:46:55;6.03;;;2.00;;
78563;SDS011;67856;47.754;19.088;2023-09-19T14:49:57;4.50;;;1.80;;
78563;SDS011;67856;47.754;19.088;2023-09-19T14:53:01;6.75;;;1.85;;
78563;SDS011;67856;47.754;19.088;2023-09-19T14:56:07;4.00;;;1.70;;
78563;SDS011;67856;47.754;19.088;2023-09-19T14:59:10;4.75;;;1.70;;
78563;SDS011;67856;47.754;19.088;2023-09-19T15:02:13;10.23;;;1.70;;
78563;SDS011;67856;47.754;19.088;2023-09-19T15:05:18;7.78;;;2.00;;
78563;SDS011;67856;47.754;19.088;2023-09-19T15:08:22;5.82;;;1.65;;
78563;SDS011;67856;47.754;19.088;2023-09-19T15:11:25;4.07;;;1.50;;
78563;SDS011;67856;47.754;19.088;2023-09-19T15:14:27;2.30;;;1.65;;
78563;SDS011;67856;47.754;19.088;2023-09-19T15:17:31;6.90;;;1.50;;
78563;SDS011;67856;47.754;19.088;2023-09-19T15:20:34;5.75;;;1.80;;
78563;SDS011;67856;47.754;19.088;2023-09-19T15:23:37;9.38;;;1.92;;
78563;SDS011;67856;47.754;19.088;2023-09-19T15:26:40;3.40;;;1.30;;
78563;SDS011;67856;47.754;19.088;2023-09-19T15:29:46;3.90;;;1.60;;
78563;SDS011;67856;47.754;19.088;2023-09-19T15:32:48;4.20;;;1.60;;
78563;SDS011;67856;47.754;19.088;2023-09-19T15:35:51;6.97;;;1.63;;
78563;SDS011;67856;47.754;19.088;2023-09-19T15:42:01;4.63;;;1.37;;
78563;SDS011;67856;47.754;19.088;2023-09-19T15:45:04;5.47;;;1.60;;
78563;SDS011;67856;47.754;19.088;2023-09-19T15:48:07;5.07;;;1.73;;
78563;SDS011;67856;47.754;19.088;2023-09-19T15:51:10;5.25;;;1.60;;
78563;SDS011;67856;47.754;19.088;2023-09-19T15:54:16;9.95;;;1.90;;
78563;SDS011;67856;47.754;19.088;2023-09-19T15:57:19;10.77;;;1.90;;
78563;SDS011;67856;47.754;19.088;2023-09-19T16:00:22;5.22;;;1.55;;
78563;SDS011;67856;47.754;19.088;2023-09-19T16:03:24;7.90;;;1.60;;
78563;SDS011;67856;47.754;19.088;2023-09-19T16:06:29;7.38;;;1.80;;
78563;SDS011;67856;47.754;19.088;2023-09-19T16:09:33;8.60;;;1.90;;
78563;SDS011;67856;47.754;19.088;2023-09-19T16:12:36;9.90;;;1.83;;
78563;SDS011;67856;47.754;19.088;2023-09-19T16:15:41;8.05;;;1.60;;
78563;SDS011;67856;47.754;19.088;2023-09-19T16:18:46;8.32;;;1.80;;
78563;SDS011;67856;47.754;19.088;2023-09-19T16:21:59;8.73;;;1.90;;
78563;SDS011;67856;47.754;19.088;2023-09-19T16:25:02;8.43;;;1.60;;
78563;SDS011;67856;47.754;19.088;2023-09-19T16:28:05;4.20;;;1.43;;
78563;SDS011;67856;47.754;19.088;2023-09-19T16:31:08;7.80;;;1.90;;
78563;SDS011;67856;47.754;19.088;2023-09-19T16:34:11;4.18;;;1.67;;
78563;SDS011;67856;47.754;19.088;2023-09-19T16:37:14;6.88;;;1.80;;
78563;SDS011;67856;47.754;19.088;2023-09-19T16:40:16;6.07;;;1.60;;
78563;SDS011;67856;47.754;19.088;2023-09-19T16:43:19;6.17;;;1.90;;
78563;SDS011;67856;47.754;19.088;2023-09-19T16:46:24;4.50;;;1.50;;
78563;SDS011;67856;47.754;19.088;2023-09-19T16:49:27;5.38;;;1.70;;
78563;SDS011;67856;47.754;19.088;2023-09-19T16:52:30;4.28;;;1.67;;
78563;SDS011;67856;47.754;19.088;2023-09-19T16:55:33;4.57;;;1.80;;
78563;SDS011;67856;47.754;19.088;2023-09-19T16:58:36;2.83;;;1.60;;
78563;SDS011;67856;47.754;19.088;2023-09-19T17:01:39;3.75;;;1.42;;
78563;SDS011;67856;47.754;19.088;2023-09-19T17:04:42;5.13;;;1.60;;
78563;SDS011;67856;47.754;19.088;2023-09-19T17:07:46;3.67;;;1.58;;
78563;SDS011;67856;47.754;19.088;2023-09-19T17:10:50;3.67;;;1.67;;
78563;SDS011;67856;47.754;19.088;2023-09-19T17:13:52;4.77;;;1.60;;
78563;SDS011;67856;47.754;19.088;2023-09-19T17:16:59;4.72;;;1.60;;
78563;SDS011;67856;47.754;19.088;2023-09-19T17:20:02;3.58;;;1.50;;
78563;SDS011;67856;47.754;19.088;2023-09-19T17:23:04;4.80;;;1.48;;
78563;SDS011;67856;47.754;19.088;2023-09-19T17:26:10;4.53;;;1.70;;
78563;SDS011;67856;47.754;19.088;2023-09-19T17:29:16;7.23;;;1.50;;
78563;SDS011;67856;47.754;19.088;2023-09-19T17:32:18;5.00;;;1.52;;
78563;SDS011;67856;47.754;19.088;2023-09-19T17:35:23;5.97;;;1.63;;
78563;SDS011;67856;47.754;19.088;2023-09-19T17:38:26;2.90;;;1.38;;
78563;SDS011;67856;47.754;19.088;2023-09-19T17:41:29;3.50;;;1.45;;
78563;SDS011;67856;47.754;19.088;2023-09-19T17:44:33;4.43;;;1.40;;
78563;SDS011;67856;47.754;19.088;2023-09-19T17:47:43;4.18;;;1.58;;
78563;SDS011;67856;47.754;19.088;2023-09-19T17:50:45;3.97;;;1.60;;
78563;SDS011;67856;47.754;19.088;2023-09-19T17:53:49;5.10;;;1.60;;
78563;SDS011;67856;47.754;19.088;2023-09-19T17:56:51;3.78;;;1.42;;
78563;SDS011;67856;47.754;19.088;2023-09-19T17:59:53;4.90;;;1.57;;
78563;SDS011;67856;47.754;19.088;2023-09-19T18:03:00;2.65;;;1.50;;
78563;SDS011;67856;47.754;19.088;2023-09-19T18:06:05;3.58;;;1.50;;
78563;SDS011;67856;47.754;19.088;2023-09-19T18:09:08;3.33;;;1.65;;
78563;SDS011;67856;47.754;19.088;2023-09-19T18:12:12;5.35;;;1.60;;
78563;SDS011;67856;47.754;19.088;2023-09-19T18:15:15;6.67;;;1.70;;
78563;SDS011;67856;47.754;19.088;2023-09-19T18:18:18;4.57;;;1.50;;
78563;SDS011;67856;47.754;19.088;2023-09-19T18:21:21;3.72;;;1.48;;
78563;SDS011;67856;47.754;19.088;2023-09-19T18:24:26;3.15;;;1.55;;
78563;SDS011;67856;47.754;19.088;2023-09-19T18:27:29;4.80;;;1.48;;
78563;SDS011;67856;47.754;19.088;2023-09-19T18:30:33;4.17;;;1.47;;
78563;SDS011;67856;47.754;19.088;2023-09-19T18:33:36;5.35;;;1.55;;
78563;SDS011;67856;47.754;19.088;2023-09-19T18:36:39;4.07;;;1.65;;
78563;SDS011;67856;47.754;19.088;2023-09-19T18:39:42;4.22;;;1.63;;
78563;SDS011;67856;47.754;19.088;2023-09-19T18:42:44;3.97;;;1.55;;
78563;SDS011;67856;47.754;19.088;2023-09-19T18:45:57;7.10;;;1.70;;